Cusseta, GA (31805)

8:19 PM EDT on April 25, 2015 (GMT -0400)
Lawson Army Air Field | | Change Station
CLOSE
Current Station
Airport
Location: Fort Benning,
Elevation: 233 ft
Nearby Weather Stations
Active Advisory: Severe Thunderstorm Watch

Elev 233 ft 32.32 °N, 84.98 °W | Updated 21 minutes ago

Mostly Cloudy
Mostly Cloudy
69 °F
Feels Like 69 °F
N
5
Wind Variable Wind from WNW

Today
High -- | Low -- °F
--% Chance of Precip.
Yesterday
High -- | Low -- °F
Precip. -- in
6:59 AM 8:15 PM
Waxing Crescent, 50% visible
Pressure 29.70 in
Visibility 10.0 miles
Clouds Clear
Dew Point 67 °F
Humidity 94%
Rainfall 0.98 in
Snow Depth Not available.
UV 0 out of 12
Pollen 2.70 out of 12
Air Quality Not available.
Flu Activity Sporadic
METAR KLSF 252358Z AUTO 30004KT 10SM CLR 20/19 A2969 RMK AO2 LTG DSNT SE SLP055 60070 T02040194 10294 20196 50005

More Conditions Fewer Conditions

Pressure 29.70 in
Visibility 10.0 miles
Clouds Clear
Dew Point 67 °F
Humidity 94%
Rainfall 0.98 in
Snow Depth Not available.
UV 0 out of 12
Pollen 2.70 out of 12
Air Quality Not available.
Flu Activity Sporadic
METAR KLSF 252358Z AUTO 30004KT 10SM CLR 20/19 A2969 RMK AO2 LTG DSNT SE SLP055 60070 T02040194 10294 20196 50005

More Conditions Fewer Conditions

10-Day Weather Forecast

Almanac

Astronomy

Apr. 25, 2015 Rise Set
Actual Time
Civil Twilight
Nautical Twilight
Astronomical Twilight
Moon
Length of Visible Light
Length of Day
Tomorrow will be .
, % of the Moon is Illuminated

Today's Extremes

State Highs State Lows

Community

WunderPhotos

Upload Photos

1,816,855 photos uploaded!

WunderBlogs® & News

Nearby

Air Quality

  Air Quality AQ Index Pollutant
Not available.

Snow Depth

Station Depth Elevation

Earthquake Activity

City Distance Mag. Time & Date
Minimum magnitude displayed is 2.5.

Coastal Water Temperatures

Place Temperature

Stations

Nearby Weather Stations

Station Location Temp. Windchill Dew Point Humidity Wind Precip. Elev Updated Type
                   
Severe Thunderstorm Watch
Statement as of 8:10 PM EDT on April 25, 2015


The National Weather Service has cancelled Severe Thunderstorm
Watch 115 for the following areas

In Georgia this cancels 6 counties

In west central Georgia

Chattahoochee Harris heard
Muscogee Stewart Troup

This includes the cities of... Columbus... Fort Benning...
Franklin... Pine Mountain... Richland and West Point.